createdAt,value
2022-11-05T00:00:20.273Z,18.10
2022-11-05T00:05:20.215Z,13.70
2022-11-05T00:10:20.178Z,18.60
2022-11-05T00:15:20.128Z,14.50
2022-11-05T00:20:20.113Z,17.90
2022-11-05T00:25:19.998Z,17.70
2022-11-05T05:00:32.082Z,17.90
2022-11-05T05:05:31.923Z,12.40
2022-11-05T05:10:31.854Z,15.80
2022-11-05T05:15:38.873Z,11.90
2022-11-05T05:20:31.759Z,13.60
2022-11-05T05:25:31.702Z,12.00
2022-11-05T05:30:31.645Z,12.80
2022-11-05T05:35:31.624Z,13.10
2022-11-05T05:40:31.556Z,14.10
2022-11-05T05:45:31.474Z,12.80
2022-11-05T05:50:31.432Z,13.20
2022-11-05T05:55:31.401Z,17.30
2022-11-05T06:00:31.320Z,14.20
2022-11-05T06:05:31.267Z,14.00
2022-11-05T06:10:31.258Z,16.40
2022-11-05T06:15:35.652Z,17.00
2022-11-05T06:20:31.090Z,15.20
2022-11-05T06:25:31.103Z,19.10
2022-11-05T06:30:31.012Z,18.40
2022-11-05T06:35:30.959Z,21.10
2022-11-05T06:40:30.883Z,20.50
2022-11-05T06:45:30.828Z,20.70
2022-11-05T06:50:30.779Z,21.30
2022-11-05T06:55:30.726Z,20.10
2022-11-05T07:00:30.807Z,23.90
2022-11-05T07:05:30.623Z,21.30
2022-11-05T07:10:30.563Z,22.40
2022-11-05T07:15:30.719Z,22.40
2022-11-05T07:20:33.848Z,21.00
2022-11-05T07:25:30.396Z,25.80
2022-11-05T07:30:30.327Z,20.80
2022-11-05T07:35:30.349Z,22.80
2022-11-05T07:40:30.237Z,18.60
2022-11-05T07:45:30.187Z,22.10
2022-11-05T07:50:30.131Z,20.90
2022-11-05T07:55:30.096Z,19.30
2022-11-05T08:00:30.022Z,21.00
2022-11-05T08:05:29.970Z,25.60
2022-11-05T08:10:29.916Z,19.80
2022-11-05T08:15:29.884Z,19.00
2022-11-05T08:20:29.811Z,17.80
2022-11-05T08:25:29.758Z,20.10
2022-11-05T08:30:29.704Z,22.10
2022-11-05T08:35:29.752Z,21.30
2022-11-05T08:40:29.590Z,19.10
2022-11-05T08:45:29.538Z,22.90
2022-11-05T08:50:29.485Z,19.80
2022-11-05T08:55:29.445Z,23.50
2022-11-05T09:00:29.377Z,22.90
2022-11-05T09:05:29.324Z,18.40
2022-11-05T09:10:29.284Z,19.10
2022-11-05T09:15:29.237Z,17.10
2022-11-05T09:20:29.165Z,16.30
2022-11-05T09:25:29.108Z,17.70
2022-11-05T09:30:29.076Z,15.70
2022-11-05T09:35:29.019Z,17.50
2022-11-05T09:40:28.945Z,15.60
2022-11-05T09:45:28.898Z,18.10
2022-11-05T09:50:28.841Z,18.20
2022-11-05T09:55:28.805Z,17.10
2022-11-05T10:00:28.734Z,15.30
2022-11-05T10:05:28.772Z,15.10
2022-11-05T10:10:28.628Z,19.50
2022-11-05T10:15:28.591Z,15.40
2022-11-05T10:20:28.517Z,18.10
2022-11-05T10:25:28.466Z,15.40
2022-11-05T10:30:28.413Z,15.60
2022-11-05T10:35:28.412Z,18.80
2022-11-05T10:40:28.309Z,15.90
2022-11-05T10:45:28.248Z,14.10
2022-11-05T10:50:28.204Z,16.00
2022-11-05T10:55:28.163Z,16.50
2022-11-05T11:00:28.091Z,14.30
2022-11-05T11:05:28.034Z,15.10
2022-11-05T11:10:27.984Z,14.60
2022-11-05T11:15:34.982Z,14.10
2022-11-05T11:20:27.879Z,11.50
2022-11-05T11:25:27.820Z,15.80
2022-11-05T11:30:27.773Z,13.00
2022-11-05T11:35:27.734Z,11.60
2022-11-05T11:40:27.662Z,11.60
2022-11-05T11:45:27.673Z,11.00
2022-11-05T11:50:27.552Z,7.70
2022-11-05T11:55:27.671Z,9.00
2022-11-05T12:00:27.445Z,8.00
2022-11-05T12:05:27.391Z,4.30
2022-11-05T12:10:27.339Z,6.00
2022-11-05T12:15:27.300Z,7.10
2022-11-05T12:20:27.230Z,7.20
2022-11-05T12:25:27.173Z,7.90
2022-11-05T12:30:27.120Z,6.60
2022-11-05T12:35:27.081Z,6.90
2022-11-05T12:40:27.014Z,4.80
2022-11-05T12:45:26.957Z,6.40
2022-11-05T12:50:26.904Z,8.00
2022-11-05T12:55:26.868Z,7.70
2022-11-05T13:00:26.793Z,9.70
2022-11-05T13:05:26.775Z,23.20
2022-11-05T13:10:26.683Z,8.70
2022-11-05T13:15:26.646Z,7.60
2022-11-05T13:20:26.581Z,9.20
2022-11-05T13:25:26.541Z,6.80
2022-11-05T13:30:26.491Z,6.70
2022-11-05T13:35:26.435Z,6.90
2022-11-05T13:40:26.366Z,5.50
2022-11-05T13:45:26.307Z,8.40
2022-11-05T13:50:26.257Z,7.30
2022-11-05T13:55:26.220Z,6.00
2022-11-05T14:00:26.187Z,4.30
2022-11-05T14:05:26.077Z,5.20
2022-11-05T14:10:26.039Z,6.50
2022-11-05T14:15:26.008Z,5.90
2022-11-05T14:20:25.919Z,6.10
2022-11-05T14:25:25.876Z,5.10
2022-11-05T14:30:25.833Z,4.30
2022-11-05T14:35:25.778Z,3.70
2022-11-05T14:40:25.717Z,4.80
2022-11-05T14:45:25.667Z,5.00
2022-11-05T14:50:25.594Z,3.20
2022-11-05T14:55:25.668Z,3.00
2022-11-05T15:00:25.504Z,4.10
2022-11-05T15:05:25.442Z,4.40
2022-11-05T15:10:25.387Z,3.80
2022-11-05T15:15:25.483Z,4.90
2022-11-05T15:20:25.288Z,2.90
2022-11-05T15:25:25.231Z,4.00
2022-11-05T15:30:25.180Z,3.30
2022-11-05T15:35:25.235Z,3.60
2022-11-05T15:40:25.082Z,4.20
2022-11-05T15:45:25.028Z,3.70
2022-11-05T15:50:25.099Z,4.50
2022-11-05T15:55:24.955Z,5.50
2022-11-05T16:00:24.866Z,4.80
2022-11-05T16:05:24.806Z,5.30
2022-11-05T16:10:24.751Z,4.60
2022-11-05T16:15:24.723Z,5.10
2022-11-05T16:20:24.652Z,4.70
2022-11-05T16:25:24.594Z,4.70
2022-11-05T16:30:24.541Z,6.10
2022-11-05T16:35:24.651Z,6.90
2022-11-05T16:40:24.438Z,3.90
2022-11-05T16:45:24.386Z,6.60
2022-11-05T16:50:24.427Z,4.90
2022-11-05T16:55:24.518Z,5.10
2022-11-05T17:00:24.219Z,3.70
2022-11-05T17:05:24.178Z,6.20
2022-11-05T17:10:24.122Z,6.20
2022-11-05T17:15:31.207Z,5.10
2022-11-05T17:20:24.012Z,5.40
2022-11-05T17:25:23.958Z,5.60
2022-11-05T17:30:23.910Z,4.30
2022-11-05T17:35:23.870Z,3.80
2022-11-05T17:40:23.800Z,7.40
2022-11-05T17:45:23.746Z,4.40
2022-11-05T17:50:23.693Z,4.70
2022-11-05T17:55:23.662Z,5.00
2022-11-05T18:00:23.585Z,6.80
2022-11-05T18:05:23.536Z,4.10
2022-11-05T18:10:23.482Z,6.90
2022-11-05T18:15:23.447Z,6.30
2022-11-05T18:20:23.379Z,6.90
2022-11-05T18:25:23.319Z,6.10
2022-11-05T18:30:23.268Z,6.90
2022-11-05T18:35:23.233Z,6.20
2022-11-05T18:40:23.162Z,7.10
2022-11-05T18:45:28.406Z,11.90
2022-11-05T18:50:24.050Z,7.30
2022-11-05T18:55:23.140Z,7.10
2022-11-05T19:00:22.958Z,8.20
2022-11-05T19:05:28.976Z,7.60
2022-11-05T19:10:23.843Z,11.40
2022-11-05T19:15:22.838Z,9.60
2022-11-05T19:20:22.741Z,8.40
2022-11-05T19:25:22.672Z,9.20
2022-11-05T19:30:22.620Z,10.80
2022-11-05T19:35:22.594Z,14.00
2022-11-05T19:40:22.504Z,10.00
2022-11-05T19:45:43.554Z,9.30
2022-11-05T19:50:23.408Z,9.10
2022-11-05T19:55:22.371Z,9.50
2022-11-05T20:00:22.299Z,10.70
2022-11-05T20:05:22.243Z,10.20
2022-11-05T20:10:22.200Z,11.30
2022-11-05T20:15:22.149Z,11.70
2022-11-05T20:20:22.087Z,11.00
2022-11-05T20:25:22.029Z,11.30
2022-11-05T20:30:21.973Z,11.90
2022-11-05T20:35:21.940Z,11.20
2022-11-05T20:40:21.865Z,12.30
2022-11-05T20:45:21.819Z,10.00
2022-11-05T20:50:21.808Z,14.30
2022-11-05T20:55:21.724Z,12.10
2022-11-05T21:00:21.647Z,13.90
2022-11-05T21:05:21.602Z,13.80
2022-11-05T21:10:21.628Z,12.30
2022-11-05T21:15:21.511Z,12.10
2022-11-05T21:20:21.431Z,11.40
2022-11-05T21:25:21.381Z,9.40
2022-11-05T21:30:21.322Z,11.60
2022-11-05T21:35:21.296Z,9.80
2022-11-05T21:40:21.225Z,13.40
2022-11-05T21:45:21.170Z,9.60
2022-11-05T21:50:22.056Z,12.00
2022-11-05T21:55:21.074Z,14.10
2022-11-05T22:00:21.003Z,14.20
2022-11-05T22:05:20.948Z,15.20
2022-11-05T22:10:20.892Z,13.40
2022-11-05T22:15:20.863Z,10.60
2022-11-05T22:20:20.792Z,10.30
2022-11-05T22:25:20.740Z,11.60
2022-11-05T22:30:20.679Z,10.40
2022-11-05T22:35:20.651Z,10.40
2022-11-05T22:40:23.873Z,12.80
2022-11-05T22:45:20.521Z,13.70
2022-11-05T22:50:20.463Z,14.80
2022-11-05T22:55:20.432Z,10.80
2022-11-05T23:00:20.359Z,12.00
2022-11-05T23:05:20.393Z,9.90
2022-11-05T23:10:20.251Z,12.00
2022-11-05T23:15:20.217Z,11.20
2022-11-05T23:20:27.180Z,14.60
2022-11-05T23:25:20.093Z,10.10
2022-11-05T23:30:20.047Z,9.60
2022-11-05T23:35:20.002Z,9.00
2022-11-05T23:40:19.932Z,13.30
2022-11-05T23:45:19.907Z,9.50
2022-11-05T23:50:19.832Z,11.40
2022-11-05T23:55:19.777Z,10.90
